< < Back
Terminal Aerodrome Forecast


Current Version              Previous Versions:   1  2  3  4  5  6  7  8  9  

Terminal Aerodrome Forecast

967
FTUS42 KILM 311700
TAFFLO
TAF
KFLO 311725Z 3118/0118 35005KT P6SM SCT040 SCT250
     FM010600 27005KT P6SM BKN050
     FM011300 30010G18KT P6SM VCSH SCT035 BKN150
      TEMPO 0115/0118 30015G25KT 4SM SHRA BKN030=



Latest METAR

715
SAUS70 KWBC 312100 RRL
MTRFLO
METAR KFLO 312053Z 35004KT 10SM BKN050 BKN070 19/06 A2979 RMK AO2 SLP087
T01940056 56015


USA.gov is the U.S. government's official web portal to all federal, state and local government web resources and services.